VIP Ground Handling & Aviation Services

 

 
Airport

ARAXOS (GPA)

Ground Handling Services – GPA/LGRX

VIP Ground Handling

State Ground Handling

Military Ground Handling

Slot & PPR Coordination

Fuel Arrangements

Crew Accommodation Arrangements

Crew Transportation

Customs & Immigration Assistance

Executive Terminal Services

Crew Lounge

Flight Planning, Weather Briefing and NOTAMs

Catering Arrangements

Security Services

Aircraft Maintenance

Airport Customs & Immigration

Concierge Services

VIP Meet & Greet

Helicopter Transfers

Chauffeur Services

Aircraft Charter

Yacht Charter

Hire & Rental

Entertainment & Hospitality

Health & Beauty

Delivery Services

Conference & Meeting rooms

Araxos Airport, Patra, 270 52

+30 210 35 33 331 (24/7)

+30 694 6200 300 (24/7)

greece@alphajetservices.com

Araxos Airport
Airport Type
•Joint Civil / Military
Operating Hours
•Check NOTAMS
Fuel Available
•JET A1
Fire Category
•6
Approaches
•VOR / DME
Available data for LGRX from the past 2 hours
ARAXOS (CIV/AFB)
Metar
LGRX 260950Z 01009KT CAVOK 35/12 Q1013

09:50 UTC

Wind: 10° 9kt

Visibility:

Sky:

Temp: 35 deg C / 95 deg F

Dewpoint: 12 deg C / 53.6 deg F

Pressure: 1013 hPa

TAF
TAF LGRX 260800Z 2609/2618 04014KT 9999 FEW025